Topsfield, Massachusetts
Current Conditions -  °F | °C
As of 9:53 PM on Wednesday 22 Oct 2014 (Local Time) from KBVY Reporting Station
Light Rain Light Rain  
Wind Chill: 51°   Ceiling: 700
Heat Index: 51°   Visibility: 3mi
Dew Point: 48°   Wind: 24mph
Humidity: 89%   Direction: 40°NE
Pressure: 29.84"   Gusts: 43mph
Location:  42.64°N, 70.95°W
Report Text: KBVY 230153Z AUTO 04021G37KT 3SM -RA BR OVC007 11/09 A2984 RMK AO2 PK WND 04041/0059 LTG DSNT SW SLP101 P0002 T01060089
Loading
Personal Weather Stations






























Interactive Weather Map
Tropical Storm Tracking
New forecast layout! Learn more

10-Day Weather Forecast

Advertisements
Track Severe Weather on mobile